Faith Municipal, SD

10:55 PM MDT on August 27, 2014 (GMT -0600)
Philip | Change Station
CLOSE
Current Station
Airport
Location: Philip,
Elevation: 2208 ft
Nearby Weather Stations

Elev 2208 ft 44.05 °N, 101.60 °W | Updated 24 minutes ago

Light Rain
Light Rain
66 °F
Feels Like 66 °F
N
0
Wind Variable Wind from North

Today
High -- | Low -- °F
--% Chance of Precip.
Yesterday
High -- | Low -- °F
Precip. -- in
6:04 AM 7:34 PM
Waxing Crescent, 6% visible
Pressure 30.01 in
Visibility 8.0 miles
Clouds Mostly Cloudy 1300 ft
Overcast 10000 ft
Dew Point 63 °F
Humidity 90%
Rainfall 0.17 in
Snow Depth Not available.
UV 0 out of 12
Pollen 8.40 out of 12
Air Quality Not available.
Flu Activity Not available.
SPECI KPHP 280431Z AUTO 00000KT 8SM -RA BKN013 OVC100 19/17 A3001 RMK AO2 P0002 T01890172

More Conditions Fewer Conditions

Pressure 30.01 in
Visibility 8.0 miles
Clouds Mostly Cloudy 1300 ft
Overcast 10000 ft
Dew Point 63 °F
Humidity 90%
Rainfall 0.17 in
Snow Depth Not available.
UV 0 out of 12
Pollen 8.40 out of 12
Air Quality Not available.
Flu Activity Not available.
SPECI KPHP 280431Z AUTO 00000KT 8SM -RA BKN013 OVC100 19/17 A3001 RMK AO2 P0002 T01890172

More Conditions Fewer Conditions

10-Day Weather Forecast

Almanac

Astronomy

Aug. 27, 2014 Rise Set
Actual Time 6:04 AM MDT 7:34 PM MDT
Civil Twilight 5:33 AM MDT 8:04 PM MDT
Nautical Twilight 4:56 AM MDT 8:41 PM MDT
Astronomical Twilight 4:16 AM MDT 9:21 PM MDT
Moon 8:09 AM MDT (8/27) 8:18 PM MDT (8/27)
Length of Visible Light 14h 31m
Length of Day
13h 29m
Tomorrow will be 2m 57s shorter.
Waxing Crescent, 6% of the Moon is Illuminated
Aug 28
Waxing Crescent
Sep 2
First Quarter
Sep 8
Full
Sep 15
Last Quarter
Sep 24
New

Yesterday's Extremes

State Highs State Lows

Community

WunderPhotos

Upload Photos

1,747,907 photos uploaded!

Nearby

Snow Depth

Station Depth Elevation
North Rapid Creek 0 in 6130 ft
Blind Park 0 in 6890 ft

Earthquake Activity

City Distance Mag. Time & Date
No recent earthquake activity has been reported nearby.
Minimum magnitude displayed is 2.5.

Coastal Water Temperatures

Place Temperature
No Stations Reporting

Nearby Weather Stations